createdAt,value
2019-05-29T00:02:27.637Z,10.00
2019-05-29T00:04:58.591Z,9.90
2019-05-29T00:07:29.520Z,10.00
2019-05-29T00:10:00.471Z,10.00
2019-05-29T00:12:31.038Z,10.00
2019-05-29T00:15:02.284Z,9.90
2019-05-29T00:17:33.164Z,9.80
2019-05-29T00:20:04.078Z,9.70
2019-05-29T00:22:34.663Z,9.70
2019-05-29T00:25:06.395Z,9.70
2019-05-29T00:27:36.998Z,9.70
2019-05-29T00:30:08.865Z,9.70
2019-05-29T00:32:39.716Z,9.70
2019-05-29T00:35:12.165Z,9.70
2019-05-29T00:37:43.371Z,9.70
2019-05-29T00:40:17.144Z,9.60
2019-05-29T00:42:48.078Z,9.60
2019-05-29T00:45:19.078Z,9.70
2019-05-29T00:47:49.959Z,9.60
2019-05-29T00:50:20.544Z,9.70
2019-05-29T00:52:51.790Z,9.70
2019-05-29T00:55:23.030Z,9.70
2019-05-29T00:57:53.961Z,9.60
2019-05-29T01:00:25.107Z,9.60
2019-05-29T01:02:55.799Z,9.50
2019-05-29T01:05:26.418Z,9.60
2019-05-29T01:07:57.012Z,9.60
2019-05-29T01:10:27.694Z,9.60
2019-05-29T01:12:58.727Z,9.60
2019-05-29T01:15:29.316Z,9.60
2019-05-29T01:18:00.298Z,9.60
2019-05-29T01:20:30.870Z,9.60
2019-05-29T01:23:01.490Z,9.60
2019-05-29T01:25:32.079Z,9.60
2019-05-29T01:28:02.684Z,9.60
2019-05-29T01:30:33.602Z,9.60
2019-05-29T01:33:04.254Z,9.60
2019-05-29T01:35:34.822Z,9.60
2019-05-29T01:38:05.393Z,9.60
2019-05-29T01:40:36.346Z,9.60
2019-05-29T01:43:06.980Z,9.60
2019-05-29T01:45:38.215Z,9.60
2019-05-29T01:48:09.310Z,9.60
2019-05-29T01:50:39.933Z,9.60
2019-05-29T01:53:10.473Z,9.60
2019-05-29T01:55:41.221Z,9.60
2019-05-29T01:58:12.893Z,9.60
2019-05-29T02:00:43.494Z,9.60
2019-05-29T02:03:15.709Z,9.60
2019-05-29T02:05:46.481Z,9.60
2019-05-29T02:08:18.047Z,9.60
2019-05-29T02:10:48.721Z,9.60
2019-05-29T02:13:19.530Z,9.50
2019-05-29T02:15:50.499Z,9.50
2019-05-29T02:18:21.058Z,9.50
2019-05-29T02:20:51.688Z,9.50
2019-05-29T02:23:22.585Z,9.50
2019-05-29T02:25:53.590Z,9.50
2019-05-29T02:28:24.592Z,9.50
2019-05-29T02:30:55.398Z,9.50
2019-05-29T02:33:26.850Z,9.50
2019-05-29T02:35:58.641Z,9.50
2019-05-29T02:38:29.252Z,9.50
2019-05-29T02:40:59.885Z,9.50
2019-05-29T02:43:30.453Z,9.50
2019-05-29T02:46:01.371Z,9.40
2019-05-29T02:48:32.335Z,9.40
2019-05-29T02:51:03.583Z,9.30
2019-05-29T02:53:34.189Z,9.30
2019-05-29T02:56:04.774Z,9.30
2019-05-29T02:58:35.442Z,9.20
2019-05-29T03:01:06.455Z,9.30
2019-05-29T03:03:39.789Z,9.20
2019-05-29T03:06:10.213Z,9.20
2019-05-29T03:08:40.945Z,9.20
2019-05-29T03:11:11.580Z,9.20
2019-05-29T03:13:42.211Z,9.20
2019-05-29T03:16:13.342Z,9.30
2019-05-29T03:18:44.052Z,9.20
2019-05-29T03:21:14.621Z,9.20
2019-05-29T03:23:45.887Z,9.20
2019-05-29T03:26:16.827Z,9.20
2019-05-29T03:28:47.394Z,9.20
2019-05-29T03:31:18.226Z,9.10
2019-05-29T03:33:50.801Z,9.10
2019-05-29T03:36:21.936Z,9.10
2019-05-29T03:38:52.584Z,9.10
2019-05-29T03:41:23.479Z,9.10
2019-05-29T03:43:54.431Z,9.00
2019-05-29T03:46:31.171Z,9.00
2019-05-29T03:48:57.551Z,8.90
2019-05-29T03:51:29.707Z,8.90
2019-05-29T03:54:00.647Z,8.90
2019-05-29T03:56:32.543Z,8.90
2019-05-29T03:59:03.291Z,8.90
2019-05-29T04:01:35.567Z,8.90
2019-05-29T04:04:06.403Z,8.90
2019-05-29T04:06:37.640Z,8.90
2019-05-29T04:09:09.130Z,8.90
2019-05-29T04:11:39.880Z,8.90
2019-05-29T04:14:10.450Z,8.90
2019-05-29T04:16:58.273Z,9.00
2019-05-29T04:19:16.177Z,9.00
2019-05-29T04:21:47.822Z,9.00
2019-05-29T04:24:20.772Z,9.10
2019-05-29T04:26:53.085Z,9.10
2019-05-29T04:29:24.853Z,9.10
2019-05-29T04:31:55.973Z,9.10
2019-05-29T04:34:26.907Z,9.00
2019-05-29T04:36:58.564Z,9.00
2019-05-29T04:39:30.595Z,9.10
2019-05-29T04:42:01.621Z,9.10
2019-05-29T04:44:33.379Z,9.10
2019-05-29T04:47:11.022Z,9.20
2019-05-29T04:49:37.965Z,9.30
2019-05-29T04:52:09.928Z,9.30
2019-05-29T04:54:40.515Z,9.20
2019-05-29T04:57:11.498Z,9.20
2019-05-29T04:59:42.430Z,9.30
2019-05-29T05:02:13.056Z,9.30
2019-05-29T05:04:43.984Z,9.40
2019-05-29T05:07:14.580Z,9.50
2019-05-29T05:09:45.134Z,9.50
2019-05-29T05:12:16.114Z,9.50
2019-05-29T05:14:46.777Z,9.60
2019-05-29T05:17:26.331Z,9.60
2019-05-29T05:19:49.781Z,9.60
2019-05-29T05:22:20.426Z,9.70
2019-05-29T05:24:51.000Z,9.70
2019-05-29T05:27:21.595Z,9.70
2019-05-29T05:29:52.164Z,9.70
2019-05-29T05:32:22.745Z,9.70
2019-05-29T05:34:53.319Z,9.80
2019-05-29T05:37:23.924Z,9.90
2019-05-29T05:39:55.021Z,10.00
2019-05-29T05:42:25.692Z,10.00
2019-05-29T05:44:56.277Z,10.00
2019-05-29T05:47:43.570Z,10.00
2019-05-29T05:49:59.731Z,10.00
2019-05-29T05:52:31.218Z,10.10
2019-05-29T05:55:01.861Z,10.20
2019-05-29T05:57:33.525Z,10.30
2019-05-29T06:00:05.337Z,10.50
2019-05-29T06:02:36.090Z,10.60
2019-05-29T06:05:07.687Z,10.70
2019-05-29T06:07:38.346Z,10.60
2019-05-29T06:10:10.033Z,10.50
2019-05-29T06:12:40.698Z,10.60
2019-05-29T06:15:11.284Z,10.50
2019-05-29T06:17:51.388Z,10.50
2019-05-29T06:20:15.326Z,10.40
2019-05-29T06:22:45.910Z,10.50
2019-05-29T06:25:17.632Z,10.50
2019-05-29T06:27:49.006Z,10.40
2019-05-29T06:30:20.635Z,10.50
2019-05-29T06:32:51.418Z,10.50
2019-05-29T06:35:22.208Z,10.40
2019-05-29T06:37:52.809Z,10.50
2019-05-29T06:40:40.205Z,10.40
2019-05-29T06:43:30.740Z,10.60
2019-05-29T06:46:01.300Z,10.60
2019-05-29T06:48:46.306Z,10.60
2019-05-29T06:51:04.774Z,10.60
2019-05-29T06:53:35.760Z,10.70
2019-05-29T06:56:06.884Z,10.70
2019-05-29T06:58:38.113Z,10.80
2019-05-29T07:01:08.732Z,10.90
2019-05-29T07:03:39.937Z,10.80
2019-05-29T07:06:10.522Z,10.90
2019-05-29T07:08:45.023Z,10.90
2019-05-29T07:11:14.027Z,11.00
2019-05-29T07:13:47.583Z,11.00
2019-05-29T07:16:16.952Z,11.30
2019-05-29T07:19:23.190Z,11.40
2019-05-29T07:21:20.233Z,11.30
2019-05-29T07:23:51.134Z,11.30
2019-05-29T07:26:22.059Z,11.30
2019-05-29T07:29:07.522Z,11.30
2019-05-29T07:31:24.941Z,11.40
2019-05-29T07:33:55.962Z,11.50
2019-05-29T07:36:26.828Z,11.50
2019-05-29T07:39:03.472Z,11.40
2019-05-29T07:41:30.612Z,11.30
2019-05-29T07:44:01.402Z,11.30
2019-05-29T07:46:32.102Z,11.20
2019-05-29T07:49:02.656Z,11.20
2019-05-29T07:51:33.202Z,11.10
2019-05-29T07:54:03.852Z,11.10
2019-05-29T07:56:35.162Z,11.00
2019-05-29T07:59:06.082Z,11.00
2019-05-29T08:01:36.739Z,10.90
2019-05-29T08:04:07.356Z,10.80
2019-05-29T08:06:38.942Z,10.90
2019-05-29T08:09:10.614Z,10.90
2019-05-29T08:11:41.515Z,10.80
2019-05-29T08:14:12.667Z,10.70
2019-05-29T08:16:44.021Z,10.80
2019-05-29T08:19:15.107Z,10.80
2019-05-29T08:21:46.508Z,10.90
2019-05-29T08:24:17.208Z,11.10
2019-05-29T08:26:48.898Z,11.00
2019-05-29T08:29:19.880Z,10.90
2019-05-29T08:31:51.032Z,10.80
2019-05-29T08:34:21.679Z,10.80
2019-05-29T08:37:04.895Z,10.90
2019-05-29T08:39:35.448Z,10.80
2019-05-29T08:42:21.065Z,10.60
2019-05-29T08:44:29.641Z,10.60
2019-05-29T08:47:09.726Z,10.60
2019-05-29T08:49:33.162Z,10.80
2019-05-29T08:52:11.761Z,10.80
2019-05-29T08:54:36.167Z,11.00
2019-05-29T08:57:06.733Z,10.90
2019-05-29T08:59:37.711Z,11.10
2019-05-29T09:02:08.270Z,11.20
2019-05-29T09:04:38.948Z,11.30
2019-05-29T09:07:09.524Z,11.40
2019-05-29T09:09:40.684Z,11.40
2019-05-29T09:12:11.258Z,11.30
2019-05-29T09:14:41.866Z,11.40
2019-05-29T09:17:14.492Z,11.30
2019-05-29T09:19:45.612Z,11.30
2019-05-29T09:22:16.572Z,11.30
2019-05-29T09:24:47.252Z,11.40
2019-05-29T09:27:19.061Z,11.40
2019-05-29T09:29:49.968Z,11.40
2019-05-29T09:32:40.725Z,11.50
2019-05-29T09:34:52.832Z,11.70
2019-05-29T09:37:25.600Z,11.80
2019-05-29T09:39:56.176Z,11.80
2019-05-29T09:42:26.808Z,12.00
2019-05-29T09:44:58.066Z,11.90
2019-05-29T09:47:29.009Z,11.80
2019-05-29T09:49:59.585Z,11.90
2019-05-29T09:52:30.907Z,12.00
2019-05-29T09:55:02.615Z,12.00
2019-05-29T09:57:33.698Z,12.10
2019-05-29T10:00:05.129Z,12.40
2019-05-29T10:02:35.705Z,12.70
2019-05-29T10:05:08.681Z,12.70
2019-05-29T10:07:39.333Z,12.70
2019-05-29T10:10:11.420Z,12.80
2019-05-29T10:12:42.013Z,12.80
2019-05-29T10:15:16.184Z,13.10
2019-05-29T10:17:47.090Z,13.00
2019-05-29T10:20:18.995Z,13.30
2019-05-29T10:22:49.589Z,13.10
2019-05-29T10:25:20.662Z,13.10
2019-05-29T10:27:51.253Z,13.00
2019-05-29T10:30:22.405Z,12.90
2019-05-29T10:32:53.425Z,12.60
2019-05-29T10:35:24.525Z,12.40
2019-05-29T10:37:55.783Z,12.20
2019-05-29T10:40:26.357Z,12.00
2019-05-29T10:42:56.933Z,11.90
2019-05-29T10:45:27.804Z,12.10
2019-05-29T10:47:58.420Z,12.30
2019-05-29T10:50:29.432Z,12.20
2019-05-29T10:53:00.679Z,12.20
2019-05-29T10:55:31.290Z,12.30
2019-05-29T10:58:02.312Z,12.30
2019-05-29T11:00:32.892Z,12.50
2019-05-29T11:03:03.820Z,12.60
2019-05-29T11:05:34.602Z,12.80
2019-05-29T11:08:05.782Z,12.90
2019-05-29T11:10:36.359Z,13.10
2019-05-29T11:13:07.067Z,13.30
2019-05-29T11:15:37.597Z,13.00
2019-05-29T11:18:08.276Z,13.00
2019-05-29T11:20:39.039Z,13.10
2019-05-29T11:23:09.646Z,12.60
2019-05-29T11:25:40.525Z,12.30
2019-05-29T11:28:11.136Z,12.10
2019-05-29T11:30:41.803Z,12.00
2019-05-29T11:33:12.500Z,11.90
2019-05-29T11:35:57.294Z,11.80
2019-05-29T11:38:15.560Z,11.80
2019-05-29T11:40:46.598Z,11.80
2019-05-29T11:43:17.573Z,11.80
2019-05-29T11:45:48.137Z,11.80
2019-05-29T11:48:18.751Z,12.00
2019-05-29T11:50:50.036Z,12.10
2019-05-29T11:53:21.082Z,12.30
2019-05-29T11:55:53.598Z,12.30
2019-05-29T11:58:30.956Z,12.40
2019-05-29T12:00:59.218Z,12.40
2019-05-29T12:03:29.921Z,12.60
2019-05-29T12:06:03.032Z,12.50
2019-05-29T12:08:32.805Z,12.30
2019-05-29T12:11:06.916Z,12.30
2019-05-29T12:13:35.862Z,12.50
2019-05-29T12:16:06.812Z,12.40
2019-05-29T12:18:37.431Z,12.30
2019-05-29T12:21:08.404Z,12.50
2019-05-29T12:23:39.063Z,12.80
2019-05-29T12:26:21.971Z,13.20
2019-05-29T12:28:42.386Z,13.30
2019-05-29T12:31:13.329Z,13.50
2019-05-29T12:33:44.902Z,13.70
2019-05-29T12:36:15.866Z,14.50
2019-05-29T12:38:46.439Z,14.70
2019-05-29T12:41:17.727Z,15.50
2019-05-29T12:43:48.838Z,15.80
2019-05-29T12:46:19.412Z,15.30
2019-05-29T12:48:49.968Z,15.50
2019-05-29T12:51:21.025Z,15.00
2019-05-29T12:53:53.828Z,14.70
2019-05-29T12:56:24.967Z,14.60
2019-05-29T12:58:56.079Z,14.80
2019-05-29T13:01:26.781Z,16.00
2019-05-29T13:03:58.631Z,16.40
2019-05-29T13:06:29.501Z,16.40
2019-05-29T13:09:00.480Z,17.50
2019-05-29T13:11:31.253Z,17.50
2019-05-29T13:14:02.709Z,17.40
2019-05-29T13:16:33.437Z,17.80
2019-05-29T13:19:05.354Z,17.80
2019-05-29T13:21:36.320Z,18.20
2019-05-29T13:24:11.252Z,17.90
2019-05-29T13:26:39.140Z,17.00
2019-05-29T13:29:10.109Z,15.90
2019-05-29T13:31:40.674Z,16.20
2019-05-29T13:34:11.647Z,16.70
2019-05-29T13:36:42.223Z,16.80
2019-05-29T13:39:12.796Z,17.80
2019-05-29T13:41:43.345Z,18.30
2019-05-29T13:44:13.976Z,17.40
2019-05-29T13:46:44.820Z,17.00
2019-05-29T13:49:15.801Z,16.60
2019-05-29T13:51:46.360Z,16.50
2019-05-29T13:54:18.289Z,16.20
2019-05-29T13:56:49.382Z,16.10
2019-05-29T13:59:20.302Z,16.00
2019-05-29T14:01:51.246Z,15.80
2019-05-29T14:04:22.456Z,15.70
2019-05-29T14:06:53.391Z,15.60
2019-05-29T14:09:24.276Z,15.40
2019-05-29T14:11:54.904Z,15.30
2019-05-29T14:14:25.800Z,15.50
2019-05-29T14:16:56.360Z,15.80
2019-05-29T14:19:27.327Z,16.60
2019-05-29T14:21:57.917Z,18.20
2019-05-29T14:24:30.211Z,18.90
2019-05-29T14:27:01.588Z,19.20
2019-05-29T14:29:32.273Z,19.90
2019-05-29T14:32:03.023Z,18.90
2019-05-29T14:34:33.750Z,19.20
2019-05-29T14:37:06.285Z,19.80
2019-05-29T14:39:37.585Z,18.60
2019-05-29T14:42:09.967Z,18.70
2019-05-29T14:44:40.903Z,19.80
2019-05-29T14:47:13.331Z,19.70
2019-05-29T14:49:44.139Z,19.30
2019-05-29T14:52:15.090Z,18.70
2019-05-29T14:54:45.663Z,18.10
2019-05-29T14:57:25.187Z,17.40
2019-05-29T14:59:49.054Z,17.00
2019-05-29T15:02:23.875Z,16.60
2019-05-29T15:04:52.335Z,16.20
2019-05-29T15:07:23.290Z,15.90
2019-05-29T15:09:53.854Z,15.70
2019-05-29T15:12:24.483Z,15.60
2019-05-29T15:14:55.750Z,15.70
2019-05-29T15:17:26.362Z,15.80
2019-05-29T15:19:57.147Z,16.10
2019-05-29T15:22:27.751Z,16.10
2019-05-29T15:25:06.584Z,16.00
2019-05-29T15:27:31.002Z,15.80
2019-05-29T15:30:01.661Z,15.70
2019-05-29T15:32:32.564Z,15.50
2019-05-29T15:35:03.097Z,15.50
2019-05-29T15:37:34.348Z,15.50
2019-05-29T15:40:06.641Z,16.70
2019-05-29T15:42:37.233Z,18.50
2019-05-29T15:45:11.838Z,18.50
2019-05-29T15:47:43.119Z,18.40
2019-05-29T15:50:16.002Z,18.10
2019-05-29T15:52:46.474Z,19.40
2019-05-29T15:55:28.119Z,19.50
2019-05-29T15:57:49.759Z,20.40
2019-05-29T16:00:21.287Z,20.90
2019-05-29T16:02:51.829Z,21.10
2019-05-29T16:05:23.307Z,20.60
2019-05-29T16:07:53.914Z,19.80
2019-05-29T16:10:25.268Z,18.60
2019-05-29T16:12:55.838Z,19.20
2019-05-29T16:15:26.792Z,18.50
2019-05-29T16:17:57.355Z,17.80
2019-05-29T16:20:28.501Z,17.60
2019-05-29T16:22:59.029Z,17.30
2019-05-29T16:25:40.027Z,17.30
2019-05-29T16:28:02.540Z,17.10
2019-05-29T16:30:33.139Z,18.10
2019-05-29T16:33:03.974Z,18.80
2019-05-29T16:35:37.506Z,18.90
2019-05-29T16:38:08.019Z,18.90
2019-05-29T16:40:38.978Z,19.40
2019-05-29T16:43:09.517Z,19.70
2019-05-29T16:45:40.182Z,20.50
2019-05-29T16:48:12.891Z,20.20
2019-05-29T16:50:43.852Z,19.70
2019-05-29T16:53:14.719Z,19.90
2019-05-29T16:55:53.803Z,19.50
2019-05-29T16:58:19.780Z,19.90
2019-05-29T17:00:50.543Z,20.30
2019-05-29T17:03:21.723Z,20.20
2019-05-29T17:05:52.375Z,19.90
2019-05-29T17:08:24.619Z,20.70
2019-05-29T17:10:55.398Z,20.70
2019-05-29T17:13:26.016Z,21.00
2019-05-29T17:15:57.237Z,20.70
2019-05-29T17:18:27.829Z,19.20
2019-05-29T17:20:58.720Z,18.00
2019-05-29T17:23:30.046Z,19.00
2019-05-29T17:26:10.104Z,18.80
2019-05-29T17:28:33.343Z,19.60
2019-05-29T17:31:03.941Z,19.00
2019-05-29T17:33:34.501Z,18.80
2019-05-29T17:36:05.781Z,19.10
2019-05-29T17:38:36.678Z,19.60
2019-05-29T17:41:07.657Z,18.00
2019-05-29T17:43:38.931Z,18.40
2019-05-29T17:46:09.484Z,18.80
2019-05-29T17:48:40.098Z,18.90
2019-05-29T17:51:11.405Z,18.70
2019-05-29T17:53:41.960Z,19.00
2019-05-29T17:56:25.243Z,19.00
2019-05-29T17:58:44.820Z,18.30
2019-05-29T18:01:16.106Z,17.70
2019-05-29T18:03:47.323Z,16.80
2019-05-29T18:06:18.310Z,16.40
2019-05-29T18:08:49.012Z,15.90
2019-05-29T18:11:21.028Z,15.10
2019-05-29T18:13:52.302Z,14.70
2019-05-29T18:16:23.571Z,14.40
2019-05-29T18:18:54.594Z,14.40
2019-05-29T18:21:25.792Z,14.40
2019-05-29T18:23:56.884Z,14.30
2019-05-29T18:26:42.639Z,14.10
2019-05-29T18:29:00.294Z,14.10
2019-05-29T18:31:30.826Z,13.90
2019-05-29T18:34:01.419Z,13.60
2019-05-29T18:36:32.393Z,13.50
2019-05-29T18:39:03.636Z,13.60
2019-05-29T18:41:35.310Z,13.50
2019-05-29T18:44:06.269Z,13.40
2019-05-29T18:46:38.255Z,13.30
2019-05-29T18:49:08.977Z,13.10
2019-05-29T18:51:39.536Z,13.10
2019-05-29T18:54:10.437Z,13.10
2019-05-29T18:56:41.743Z,13.00
2019-05-29T18:59:12.285Z,13.00
2019-05-29T19:01:43.272Z,13.00
2019-05-29T19:04:14.181Z,12.90
2019-05-29T19:06:44.769Z,12.90
2019-05-29T19:09:15.418Z,12.80
2019-05-29T19:11:46.007Z,12.70
2019-05-29T19:14:16.976Z,12.70
2019-05-29T19:16:47.536Z,12.60
2019-05-29T19:19:18.081Z,12.50
2019-05-29T19:21:49.586Z,12.50
2019-05-29T19:24:20.190Z,12.40
2019-05-29T19:26:50.763Z,12.30
2019-05-29T19:29:22.992Z,12.20
2019-05-29T19:31:54.515Z,12.20
2019-05-29T19:34:25.260Z,12.10
2019-05-29T19:36:56.139Z,12.10
2019-05-29T19:39:28.018Z,12.00
2019-05-29T19:41:58.947Z,12.00
2019-05-29T19:44:30.384Z,11.90
2019-05-29T19:47:01.125Z,11.80
2019-05-29T19:49:32.980Z,11.70
2019-05-29T19:52:03.989Z,11.60
2019-05-29T19:54:35.698Z,11.50
2019-05-29T19:57:06.469Z,11.30
2019-05-29T19:59:37.082Z,11.30
2019-05-29T20:02:08.067Z,11.20
2019-05-29T20:04:38.697Z,11.40
2019-05-29T20:07:09.576Z,11.40
2019-05-29T20:09:40.527Z,11.30
2019-05-29T20:12:11.426Z,11.20
2019-05-29T20:14:42.330Z,11.20
2019-05-29T20:17:13.626Z,11.20
2019-05-29T20:19:44.496Z,11.20
2019-05-29T20:22:15.438Z,11.20
2019-05-29T20:24:46.078Z,11.10
2019-05-29T20:27:17.612Z,11.10
2019-05-29T20:29:48.759Z,11.10
2019-05-29T20:32:19.361Z,11.10
2019-05-29T20:34:50.004Z,11.00
2019-05-29T20:37:21.398Z,11.00
2019-05-29T20:39:52.003Z,11.00
2019-05-29T20:42:22.587Z,11.00
2019-05-29T20:44:53.216Z,10.80
2019-05-29T20:47:24.877Z,10.70
2019-05-29T20:49:55.457Z,10.60
2019-05-29T20:52:26.772Z,10.50
2019-05-29T20:54:58.815Z,10.40
2019-05-29T20:57:29.508Z,10.40
2019-05-29T21:00:00.096Z,10.30
2019-05-29T21:02:32.019Z,10.20
2019-05-29T21:05:03.054Z,10.20
2019-05-29T21:07:34.610Z,10.20
2019-05-29T21:10:06.051Z,10.10
2019-05-29T21:12:37.490Z,10.00
2019-05-29T21:15:10.298Z,9.90
2019-05-29T21:17:42.113Z,10.00
2019-05-29T21:20:14.171Z,10.10
2019-05-29T21:22:45.122Z,10.10
2019-05-29T21:25:19.368Z,10.00
2019-05-29T21:27:50.456Z,10.00
2019-05-29T21:30:25.245Z,9.90
2019-05-29T21:32:56.155Z,9.90
2019-05-29T21:35:27.516Z,9.80
2019-05-29T21:37:58.239Z,9.80
2019-05-29T21:40:29.960Z,9.90
2019-05-29T21:43:01.472Z,10.10
2019-05-29T21:45:32.436Z,10.10
2019-05-29T21:48:04.014Z,10.00
2019-05-29T21:50:35.281Z,9.90
2019-05-29T21:53:06.292Z,10.00
2019-05-29T21:55:39.518Z,10.00
2019-05-29T21:58:10.835Z,10.00
2019-05-29T22:00:48.287Z,10.20
2019-05-29T22:03:19.775Z,10.10
2019-05-29T22:05:50.366Z,10.00
2019-05-29T22:08:21.151Z,9.90
2019-05-29T22:10:51.822Z,9.70
2019-05-29T22:13:23.411Z,9.70
2019-05-29T22:15:54.823Z,9.70
2019-05-29T22:18:26.397Z,9.70
2019-05-29T22:20:58.698Z,9.70
2019-05-29T22:23:29.702Z,9.80
2019-05-29T22:26:01.580Z,9.80
2019-05-29T22:28:32.320Z,9.70
2019-05-29T22:31:03.268Z,9.70
2019-05-29T22:33:33.822Z,9.70
2019-05-29T22:36:04.830Z,9.60
2019-05-29T22:38:35.970Z,9.60
2019-05-29T22:41:06.581Z,9.50
2019-05-29T22:43:37.146Z,9.50
2019-05-29T22:46:07.849Z,9.60
2019-05-29T22:48:38.424Z,9.70
2019-05-29T22:51:09.675Z,9.80
2019-05-29T22:53:41.030Z,9.90
2019-05-29T22:56:12.147Z,9.90
2019-05-29T22:58:43.069Z,9.80
2019-05-29T23:01:14.013Z,9.80
2019-05-29T23:03:44.603Z,9.50
2019-05-29T23:06:15.534Z,9.30
2019-05-29T23:08:46.169Z,9.10
2019-05-29T23:11:16.759Z,9.00
2019-05-29T23:13:47.682Z,8.90
2019-05-29T23:16:18.272Z,8.90
2019-05-29T23:18:48.921Z,8.80
2019-05-29T23:21:19.489Z,8.80
2019-05-29T23:23:50.155Z,8.80
2019-05-29T23:26:20.723Z,8.80
2019-05-29T23:28:52.711Z,8.80
2019-05-29T23:31:23.464Z,8.70
2019-05-29T23:33:54.767Z,8.70
2019-05-29T23:36:25.631Z,8.70
2019-05-29T23:38:57.174Z,8.70
2019-05-29T23:41:27.815Z,8.70
2019-05-29T23:43:59.521Z,8.70
2019-05-29T23:46:30.540Z,8.70
2019-05-29T23:49:01.875Z,8.70
2019-05-29T23:51:32.831Z,8.60
2019-05-29T23:54:03.986Z,8.50
2019-05-29T23:56:35.054Z,8.60
2019-05-29T23:59:05.760Z,8.60
